Corpus Christi, TX

9:37 AM CST on December 29, 2014 (GMT -0600)
Texas State Aquarium | Change Station
CLOSE
Current Station
Personal Weather Station
Location: Corpus Christi, TX
Elevation: 36 ft
Nearby Weather Stations
Active Advisory: Dense Fog Advisory

Elev 36 ft 27.81 °N, 97.39 °W | Updated 3 seconds ago

Partly Cloudy
Partly Cloudy
48.0 °F
Feels Like 48 °F
N
2.4
Wind Variable Wind from ESE
Gusts 2.4 mph

Today
High -- | Low -- °F
--% Chance of Precip.
Yesterday
High -- | Low -- °F
Precip. -- in
7:19 AM 5:43 PM
First Quarter, 60% visible
Pressure 30.22 in
Visibility 3.0 miles
Clouds Few 100 ft
Scattered Clouds 25000 ft
Windchill 48 °F
Dew Point 44 °F
Humidity 85%
Rainfall 0.00 in
Snow Depth Not available.
UV 0.0 out of 12
Pollen 6.70 out of 12
Air Quality Not available.
Flu Activity Not available.
METAR KCRP 291451Z 25004KT 3SM BR FEW001 SCT250 04/04 A3022 RMK AO2 SLP233 VIS SE 1 S 1 1/2 T00440039 51027

More Conditions Fewer Conditions

Pressure 30.22 in
Visibility 3.0 miles
Clouds Few 100 ft
Scattered Clouds 25000 ft
Windchill 48 °F
Dew Point 44 °F
Humidity 85%
Rainfall 0.00 in
Snow Depth Not available.
UV 0.0 out of 12
Pollen 6.70 out of 12
Air Quality Not available.
Flu Activity Not available.
METAR KCRP 291451Z 25004KT 3SM BR FEW001 SCT250 04/04 A3022 RMK AO2 SLP233 VIS SE 1 S 1 1/2 T00440039 51027

More Conditions Fewer Conditions

Nowcast | as of 8:06 am CST on December 29, 2014

Through 10 am CST...patchy fog will continue to affect portions of the brush country and the southern coastal Bend this morning. Visibilities will fall to less than one mile at times. Motorists should be prepared for a sudden and unexpected drop in the visibility.

×

10-Day Weather Forecast

Almanac

Astronomy

Dec. 29, 2014 Rise Set
Actual Time
Civil Twilight
Nautical Twilight
Astronomical Twilight
Moon
Length of Visible Light
Length of Day
Tomorrow will be .
, % of the Moon is Illuminated

Today's Extremes

State Highs State Lows

Community

WunderPhotos

Upload Photos

1,781,604 photos uploaded!

WunderBlogs® & News

Nearby

Air Quality

  Air Quality AQ Index Pollutant
Not available.

Snow Depth

Station Depth Elevation

Earthquake Activity

City Distance Mag. Time & Date
Minimum magnitude displayed is 2.5.

Coastal Water Temperatures

Place Temperature

Nearby Weather Stations